createdAt,value
2023-02-25T00:00:31.684Z,55.58
2023-02-25T00:03:01.008Z,57.92
2023-02-25T00:05:32.223Z,56.83
2023-02-25T00:08:01.308Z,56.70
2023-02-25T00:10:30.372Z,58.42
2023-02-25T00:13:17.149Z,61.40
2023-02-25T00:15:46.916Z,61.65
2023-02-25T00:18:15.897Z,60.10
2023-02-25T00:20:44.971Z,58.95
2023-02-25T00:23:13.823Z,53.78
2023-02-25T00:25:42.867Z,57.33
2023-02-25T00:28:16.480Z,53.50
2023-02-25T00:30:45.460Z,54.70
2023-02-25T00:33:14.505Z,54.58
2023-02-25T00:35:46.578Z,63.50
2023-02-25T00:38:16.386Z,62.00
2023-02-25T00:40:48.385Z,49.33
2023-02-25T00:43:18.961Z,51.70
2023-02-25T00:45:50.258Z,52.78
2023-02-25T00:48:19.647Z,58.92
2023-02-25T00:50:48.577Z,61.75
2023-02-25T00:53:19.449Z,59.17
2023-02-25T00:55:48.641Z,58.25
2023-02-25T00:58:18.922Z,55.17
2023-02-25T01:00:52.119Z,55.30
2023-02-25T01:03:21.447Z,61.00
2023-02-25T01:05:50.555Z,54.63
2023-02-25T01:08:21.587Z,57.65
2023-02-25T01:10:50.848Z,55.60
2023-02-25T01:13:21.157Z,60.28
2023-02-25T01:15:50.128Z,56.63
2023-02-25T01:18:20.650Z,55.05
2023-02-25T01:20:49.591Z,60.17
2023-02-25T01:23:19.865Z,56.30
2023-02-25T01:25:49.306Z,51.03
2023-02-25T01:28:18.296Z,62.88
2023-02-25T01:30:48.619Z,59.15
2023-02-25T01:33:17.816Z,65.82
2023-02-25T01:35:46.758Z,58.25
2023-02-25T01:38:18.821Z,52.28
2023-02-25T01:40:47.902Z,61.20
2023-02-25T01:43:19.143Z,61.42
2023-02-25T01:45:51.650Z,54.30
2023-02-25T01:48:24.046Z,55.15
2023-02-25T01:50:58.737Z,51.58
2023-02-25T01:53:34.358Z,67.95
2023-02-25T01:56:04.758Z,51.55
2023-02-25T01:58:34.974Z,60.33
2023-02-25T02:01:09.581Z,60.78
2023-02-25T02:03:39.794Z,60.08
2023-02-25T02:06:12.575Z,59.40
2023-02-25T02:08:45.565Z,55.90
2023-02-25T02:11:14.994Z,60.53
2023-02-25T02:13:48.706Z,59.67
2023-02-25T02:16:45.305Z,56.85
2023-02-25T02:19:29.024Z,54.28
2023-02-25T02:22:08.812Z,53.45
2023-02-25T02:25:19.768Z,54.00
2023-02-25T02:28:53.549Z,54.92
2023-02-25T02:31:45.697Z,54.63
2023-02-25T02:34:30.401Z,57.00
2023-02-25T02:37:15.691Z,59.30
2023-02-25T02:39:55.902Z,53.20
2023-02-25T02:42:38.816Z,58.38
2023-02-25T02:45:16.914Z,53.63
2023-02-25T02:47:51.329Z,53.47
2023-02-25T02:50:30.920Z,48.80
2023-02-25T02:53:04.832Z,49.20
2023-02-25T02:55:38.029Z,60.75
2023-02-25T02:58:12.724Z,55.92
2023-02-25T03:00:47.771Z,49.72
2023-02-25T03:03:23.299Z,46.70
2023-02-25T03:05:55.210Z,53.83
2023-02-25T03:08:29.592Z,59.35
2023-02-25T03:10:59.248Z,56.60
2023-02-25T03:13:28.271Z,45.88
2023-02-25T03:15:59.532Z,54.47
2023-02-25T03:18:39.099Z,58.95
2023-02-25T03:21:16.397Z,48.75
2023-02-25T03:23:49.247Z,55.42
2023-02-25T03:26:26.229Z,56.85
2023-02-25T03:28:59.997Z,55.80
2023-02-25T03:31:35.681Z,50.25
2023-02-25T03:34:13.816Z,46.05
2023-02-25T03:36:47.364Z,52.50
2023-02-25T03:39:21.968Z,48.63
2023-02-25T03:41:55.798Z,49.22
2023-02-25T03:44:32.368Z,56.58
2023-02-25T03:47:04.970Z,49.55
2023-02-25T03:49:41.979Z,45.97
2023-02-25T03:52:18.089Z,50.63
2023-02-25T03:54:52.711Z,50.50
2023-02-25T03:57:25.048Z,46.67
2023-02-25T03:59:56.305Z,43.40
2023-02-25T04:02:29.491Z,44.45
2023-02-25T04:05:00.279Z,50.10
2023-02-25T04:07:29.841Z,42.72
2023-02-25T04:09:58.918Z,45.47
2023-02-25T04:12:27.968Z,44.22
2023-02-25T04:14:56.997Z,42.25
2023-02-25T04:17:25.932Z,43.10
2023-02-25T04:19:55.181Z,41.20
2023-02-25T04:22:25.644Z,43.75
2023-02-25T04:24:54.871Z,43.20
2023-02-25T04:27:24.242Z,49.30
2023-02-25T04:29:53.141Z,46.83
2023-02-25T04:32:22.332Z,52.40
2023-02-25T04:34:51.319Z,41.10
2023-02-25T04:37:20.288Z,43.88
2023-02-25T04:39:50.615Z,41.75
2023-02-25T04:42:19.564Z,49.80
2023-02-25T04:44:48.682Z,45.42
2023-02-25T04:47:19.165Z,42.70
2023-02-25T04:49:48.227Z,44.75
2023-02-25T04:52:17.348Z,48.45
2023-02-25T04:54:46.266Z,49.90
2023-02-25T04:57:16.627Z,45.05
2023-02-25T04:59:45.619Z,43.83
2023-02-25T05:02:14.752Z,43.95
2023-02-25T05:04:43.811Z,47.75
2023-02-25T05:07:12.791Z,46.17
2023-02-25T05:09:41.771Z,47.30
2023-02-25T05:12:11.045Z,47.92
2023-02-25T05:14:41.487Z,45.40
2023-02-25T05:17:10.402Z,42.67
2023-02-25T05:19:39.311Z,43.95
2023-02-25T05:22:08.999Z,42.35
2023-02-25T05:24:39.146Z,50.85
2023-02-25T05:27:09.229Z,46.50
2023-02-25T05:29:38.284Z,45.45
2023-02-25T05:32:08.850Z,46.70
2023-02-25T05:34:37.867Z,46.20
2023-02-25T05:37:07.508Z,45.17
2023-02-25T05:39:36.532Z,47.05
2023-02-25T05:42:06.068Z,45.83
2023-02-25T05:44:35.179Z,49.60
2023-02-25T05:47:04.216Z,51.92
2023-02-25T05:49:34.580Z,61.28
2023-02-25T05:52:03.593Z,42.53
2023-02-25T05:54:32.686Z,50.50
2023-02-25T05:57:01.626Z,50.67
2023-02-25T05:59:30.580Z,43.72
2023-02-25T06:01:59.647Z,44.72
2023-02-25T06:04:28.647Z,39.38
2023-02-25T06:06:59.123Z,47.55
2023-02-25T06:09:28.143Z,46.03
2023-02-25T06:11:59.831Z,50.38
2023-02-25T06:14:28.762Z,42.40
2023-02-25T06:16:57.733Z,45.72
2023-02-25T06:19:28.675Z,44.25
2023-02-25T06:21:59.067Z,44.17
2023-02-25T06:24:28.665Z,44.92
2023-02-25T06:26:58.003Z,59.30
2023-02-25T06:29:26.951Z,51.15
2023-02-25T06:31:56.103Z,46.78
2023-02-25T06:34:25.279Z,48.17
2023-02-25T06:36:54.215Z,46.88
2023-02-25T06:39:24.553Z,53.78
2023-02-25T06:41:53.576Z,52.42
2023-02-25T06:44:22.510Z,50.67
2023-02-25T06:46:51.886Z,54.47
2023-02-25T06:49:20.818Z,46.30
2023-02-25T06:51:50.346Z,51.45
2023-02-25T06:54:20.459Z,51.05
2023-02-25T06:56:57.040Z,50.50
2023-02-25T06:59:26.128Z,53.00
2023-02-25T07:01:55.263Z,42.60
2023-02-25T07:04:24.283Z,42.17
2023-02-25T07:06:53.275Z,35.17
2023-02-25T07:09:22.874Z,28.70
2023-02-25T07:11:53.220Z,27.25
2023-02-25T07:14:25.202Z,35.50
2023-02-25T07:16:57.282Z,30.40
2023-02-25T07:19:28.716Z,34.05
2023-02-25T07:21:57.844Z,27.75
2023-02-25T07:24:28.011Z,27.10
2023-02-25T07:26:58.559Z,27.45
2023-02-25T07:29:27.589Z,38.22
2023-02-25T07:31:56.913Z,37.20
2023-02-25T07:34:25.939Z,23.50
2023-02-25T07:36:54.961Z,17.85
2023-02-25T07:39:24.127Z,18.75
2023-02-25T07:41:53.104Z,20.63
2023-02-25T07:44:24.025Z,16.33
2023-02-25T07:46:53.017Z,18.90
2023-02-25T07:49:24.395Z,11.35
2023-02-25T07:51:53.356Z,10.73
2023-02-25T07:54:22.905Z,10.60
2023-02-25T07:56:52.561Z,10.13
2023-02-25T07:59:28.909Z,12.18
2023-02-25T08:01:58.292Z,8.02
2023-02-25T08:04:31.101Z,8.75
2023-02-25T08:07:00.183Z,12.38
2023-02-25T08:09:30.777Z,6.80
2023-02-25T08:11:59.799Z,5.72
2023-02-25T08:14:30.261Z,5.53
2023-02-25T08:17:01.805Z,6.45
2023-02-25T08:19:31.570Z,5.97
2023-02-25T08:22:01.346Z,2.97
2023-02-25T08:24:30.737Z,2.95
2023-02-25T08:26:59.938Z,2.25
2023-02-25T08:29:30.845Z,4.43
2023-02-25T08:32:00.382Z,3.10
2023-02-25T08:34:29.552Z,2.95
2023-02-25T08:36:59.297Z,1.83
2023-02-25T08:39:29.319Z,2.45
2023-02-25T08:41:58.415Z,2.17
2023-02-25T08:44:27.461Z,2.53
2023-02-25T08:47:01.374Z,3.50
2023-02-25T08:49:30.703Z,1.73
2023-02-25T08:51:59.625Z,3.13
2023-02-25T08:54:28.628Z,1.60
2023-02-25T08:57:00.252Z,2.65
2023-02-25T08:59:35.780Z,1.73
2023-02-25T09:02:08.654Z,1.00
2023-02-25T09:04:38.054Z,1.58
2023-02-25T09:07:08.025Z,1.42
2023-02-25T09:09:36.997Z,1.33
2023-02-25T09:12:09.612Z,3.00
2023-02-25T09:15:08.658Z,1.13
2023-02-25T09:17:39.402Z,0.75
2023-02-25T09:20:11.580Z,0.35
2023-02-25T09:22:41.370Z,2.53
2023-02-25T09:25:10.714Z,1.08
2023-02-25T09:27:39.787Z,1.13
2023-02-25T09:30:12.129Z,0.90
2023-02-25T09:32:43.201Z,0.50
2023-02-25T09:35:12.716Z,0.75
2023-02-25T09:37:41.709Z,0.73
2023-02-25T09:40:18.445Z,1.63
2023-02-25T09:43:07.596Z,0.45
2023-02-25T09:45:38.190Z,0.68
2023-02-25T09:48:19.381Z,2.55
2023-02-25T09:50:53.110Z,1.17
2023-02-25T09:53:27.928Z,0.30
2023-02-25T09:55:57.110Z,0.45
2023-02-25T09:58:36.448Z,2.22
2023-02-25T10:01:15.502Z,0.63
2023-02-25T10:03:58.062Z,1.88
2023-02-25T10:06:39.202Z,1.30
2023-02-25T10:09:22.700Z,0.95
2023-02-25T10:11:58.121Z,0.45
2023-02-25T10:14:48.510Z,0.15
2023-02-25T10:17:31.442Z,2.65
2023-02-25T10:20:27.515Z,1.80
2023-02-25T10:23:05.647Z,0.57
2023-02-25T10:25:41.219Z,0.45
2023-02-25T10:28:18.713Z,0.55
2023-02-25T10:33:25.947Z,5.97
2023-02-25T10:36:04.104Z,0.20
2023-02-25T10:38:34.562Z,2.15
2023-02-25T10:41:03.944Z,1.05
2023-02-25T10:43:35.640Z,0.30
2023-02-25T10:46:11.952Z,0.40
2023-02-25T10:48:48.162Z,0.57
2023-02-25T10:51:19.336Z,0.65
2023-02-25T10:54:06.697Z,0.55
2023-02-25T10:56:43.549Z,3.80
2023-02-25T10:59:31.261Z,1.70
2023-02-25T11:02:03.354Z,0.30
2023-02-25T11:04:38.736Z,1.58
2023-02-25T11:07:41.566Z,0.52
2023-02-25T11:10:20.812Z,0.60
2023-02-25T11:12:52.604Z,4.80
2023-02-25T11:15:50.032Z,1.13
2023-02-25T11:18:24.773Z,2.92
2023-02-25T11:20:56.502Z,1.35
2023-02-25T11:23:33.616Z,2.38
2023-02-25T11:26:03.248Z,0.30
2023-02-25T11:28:37.455Z,2.65
2023-02-25T11:31:14.341Z,0.93
2023-02-25T11:33:48.383Z,1.30
2023-02-25T11:36:24.591Z,0.47
2023-02-25T11:39:15.477Z,2.38
2023-02-25T11:41:46.517Z,0.63
2023-02-25T11:44:29.700Z,1.27
2023-02-25T11:47:05.849Z,0.45
2023-02-25T11:49:54.190Z,0.80
2023-02-25T11:52:33.022Z,0.63
2023-02-25T11:55:18.207Z,0.30
2023-02-25T11:58:03.729Z,2.90
2023-02-25T12:00:43.387Z,1.05
2023-02-25T12:04:07.303Z,1.60
2023-02-25T12:07:07.300Z,3.80
2023-02-25T12:10:10.465Z,1.05
2023-02-25T12:13:26.686Z,0.43
2023-02-25T12:17:00.567Z,0.63
2023-02-25T12:20:14.579Z,1.42
2023-02-25T12:23:22.752Z,1.90
2023-02-25T12:26:04.607Z,1.58
2023-02-25T12:29:19.110Z,1.08
2023-02-25T12:32:14.612Z,1.85
2023-02-25T12:35:34.658Z,0.85
2023-02-25T12:38:57.307Z,0.25
2023-02-25T12:41:40.383Z,0.73
2023-02-25T12:44:59.747Z,1.60
2023-02-25T12:47:50.603Z,0.20
2023-02-25T12:50:58.585Z,0.40
2023-02-25T12:53:45.902Z,0.52
2023-02-25T12:56:54.408Z,1.13
2023-02-25T12:59:52.504Z,0.88
2023-02-25T13:02:55.054Z,0.65
2023-02-25T13:06:04.036Z,1.55
2023-02-25T13:08:56.176Z,0.60
2023-02-25T13:12:01.001Z,0.40
2023-02-25T13:14:46.582Z,1.60
2023-02-25T13:17:34.458Z,0.40
2023-02-25T13:20:48.647Z,2.53
2023-02-25T13:23:50.446Z,1.67
2023-02-25T13:26:42.213Z,0.20
2023-02-25T13:29:41.118Z,0.35
2023-02-25T13:32:26.862Z,0.52
2023-02-25T13:35:19.557Z,0.30
2023-02-25T13:37:59.394Z,2.88
2023-02-25T13:40:51.911Z,0.82
2023-02-25T13:43:52.426Z,0.20
2023-02-25T13:47:10.854Z,0.52
2023-02-25T13:50:16.828Z,1.75
2023-02-25T13:53:07.546Z,0.47
2023-02-25T13:56:14.944Z,0.40
2023-02-25T13:59:03.142Z,0.70
2023-02-25T14:01:48.322Z,2.85
2023-02-25T14:04:56.866Z,2.70
2023-02-25T14:07:50.989Z,1.80
2023-02-25T14:10:36.214Z,0.20
2023-02-25T14:13:42.957Z,1.13
2023-02-25T14:16:32.795Z,0.10
2023-02-25T14:19:23.580Z,0.20
2023-02-25T14:22:22.672Z,0.73
2023-02-25T14:25:04.000Z,0.65
2023-02-25T14:27:42.675Z,0.32
2023-02-25T14:30:28.220Z,3.17
2023-02-25T14:33:13.998Z,1.50
2023-02-25T14:36:03.065Z,0.80
2023-02-25T14:38:55.419Z,2.78
2023-02-25T14:41:39.073Z,4.90
2023-02-25T14:44:13.811Z,6.45
2023-02-25T14:46:57.298Z,4.90
2023-02-25T14:49:31.514Z,4.47
2023-02-25T14:52:27.730Z,4.57
2023-02-25T14:55:26.401Z,8.35
2023-02-25T15:01:29.300Z,7.63
2023-02-25T15:04:43.314Z,5.15
2023-02-25T15:07:50.728Z,4.70
2023-02-25T15:10:41.357Z,5.20
2023-02-25T15:14:10.658Z,5.45
2023-02-25T15:17:39.912Z,5.88
2023-02-25T15:20:33.179Z,6.32
2023-02-25T15:23:11.975Z,9.43
2023-02-25T15:25:47.815Z,7.03
2023-02-25T15:28:50.961Z,5.88
2023-02-25T15:31:32.881Z,6.72
2023-02-25T15:34:54.976Z,6.18
2023-02-25T15:37:30.726Z,9.85
2023-02-25T15:40:03.723Z,6.75
2023-02-25T15:42:53.957Z,5.45
2023-02-25T15:45:43.118Z,5.53
2023-02-25T15:48:34.407Z,5.00
2023-02-25T15:51:10.380Z,4.80
2023-02-25T15:53:48.764Z,9.68
2023-02-25T15:56:51.453Z,7.00
2023-02-25T15:59:48.366Z,6.25
2023-02-25T16:02:58.488Z,5.55
2023-02-25T16:05:34.745Z,8.02
2023-02-25T16:08:24.649Z,7.28
2023-02-25T16:10:57.382Z,3.38
2023-02-25T16:13:31.049Z,4.20
2023-02-25T16:16:03.464Z,5.28
2023-02-25T16:18:37.059Z,3.92
2023-02-25T16:21:09.452Z,6.95
2023-02-25T16:23:42.369Z,19.77
2023-02-25T16:26:30.358Z,7.03
2023-02-25T16:31:50.932Z,3.20
2023-02-25T16:34:26.986Z,4.55
2023-02-25T16:37:09.624Z,3.13
2023-02-25T16:39:40.114Z,7.75
2023-02-25T16:42:15.945Z,9.73
2023-02-25T16:44:56.238Z,9.07
2023-02-25T16:47:29.734Z,2.83
2023-02-25T16:50:12.704Z,1.85
2023-02-25T16:52:50.534Z,2.55
2023-02-25T16:55:23.923Z,1.30
2023-02-25T16:58:04.434Z,2.60
2023-02-25T17:00:34.630Z,3.85
2023-02-25T17:03:11.845Z,2.42
2023-02-25T17:05:40.864Z,2.40
2023-02-25T17:08:17.922Z,4.13
2023-02-25T17:10:50.690Z,0.98
2023-02-25T17:13:27.366Z,2.53
2023-02-25T17:15:57.131Z,1.33
2023-02-25T17:18:32.750Z,1.38
2023-02-25T17:21:06.305Z,7.88
2023-02-25T17:23:40.021Z,1.77
2023-02-25T17:26:12.910Z,4.35
2023-02-25T17:28:43.074Z,4.10
2023-02-25T17:31:15.575Z,10.55
2023-02-25T17:33:51.099Z,4.57
2023-02-25T17:36:25.146Z,2.92
2023-02-25T17:38:58.361Z,1.08
2023-02-25T17:41:28.006Z,1.48
2023-02-25T17:43:57.354Z,1.55
2023-02-25T17:46:36.143Z,3.47
2023-02-25T17:49:18.932Z,1.02
2023-02-25T17:51:52.542Z,1.65
2023-02-25T17:54:25.223Z,1.75
2023-02-25T17:56:59.893Z,2.08
2023-02-25T17:59:38.919Z,2.85
2023-02-25T18:02:35.388Z,3.53
2023-02-25T18:05:27.094Z,1.52
2023-02-25T18:08:18.037Z,1.25
2023-02-25T18:10:55.935Z,1.75
2023-02-25T18:13:35.264Z,1.48
2023-02-25T18:16:41.165Z,1.45
2023-02-25T18:19:44.404Z,2.85
2023-02-25T18:22:34.405Z,2.88
2023-02-25T18:25:08.553Z,1.70
2023-02-25T18:27:38.061Z,2.20
2023-02-25T18:30:19.536Z,1.58
2023-02-25T18:32:49.187Z,1.23
2023-02-25T18:35:19.835Z,1.63
2023-02-25T18:37:55.511Z,2.88
2023-02-25T18:40:29.675Z,0.85
2023-02-25T18:43:00.192Z,1.63
2023-02-25T18:45:31.371Z,1.77
2023-02-25T18:48:01.822Z,1.55
2023-02-25T18:50:32.863Z,2.33
2023-02-25T18:53:04.976Z,2.35
2023-02-25T18:55:35.177Z,4.20
2023-02-25T18:58:07.256Z,4.15
2023-02-25T19:00:36.882Z,3.38
2023-02-25T19:03:07.103Z,4.55
2023-02-25T19:05:39.208Z,4.93
2023-02-25T19:08:14.197Z,4.45
2023-02-25T19:10:45.547Z,1.75
2023-02-25T19:13:18.716Z,2.70
2023-02-25T19:15:50.569Z,3.13
2023-02-25T19:18:19.750Z,5.63
2023-02-25T19:20:48.881Z,4.40
2023-02-25T19:23:19.853Z,3.35
2023-02-25T19:25:54.543Z,6.43
2023-02-25T19:28:24.212Z,1.83
2023-02-25T19:30:53.169Z,2.80
2023-02-25T19:33:22.218Z,3.28
2023-02-25T19:35:53.109Z,4.88
2023-02-25T19:38:23.679Z,3.60
2023-02-25T19:40:52.866Z,2.63
2023-02-25T19:43:21.908Z,0.88
2023-02-25T19:45:52.214Z,2.35
2023-02-25T19:48:21.542Z,2.47
2023-02-25T19:50:51.572Z,2.30
2023-02-25T19:53:20.684Z,2.35
2023-02-25T19:55:57.522Z,4.05
2023-02-25T19:58:32.198Z,2.50
2023-02-25T20:01:07.260Z,1.08
2023-02-25T20:03:37.676Z,2.17
2023-02-25T20:06:22.236Z,1.58
2023-02-25T20:08:53.210Z,2.70
2023-02-25T20:11:23.875Z,2.03
2023-02-25T20:13:53.446Z,1.00
2023-02-25T20:16:24.261Z,2.13
2023-02-25T20:18:57.586Z,1.50
2023-02-25T20:21:28.634Z,3.22
2023-02-25T20:24:00.009Z,1.10
2023-02-25T20:26:33.273Z,4.13
2023-02-25T20:29:06.067Z,4.65
2023-02-25T20:31:35.715Z,3.45
2023-02-25T20:34:08.439Z,2.35
2023-02-25T20:36:42.656Z,1.05
2023-02-25T20:39:36.726Z,1.30
2023-02-25T20:42:11.673Z,1.73
2023-02-25T20:44:43.628Z,3.42
2023-02-25T20:47:19.364Z,3.58
2023-02-25T20:49:49.323Z,4.72
2023-02-25T20:52:20.083Z,5.15
2023-02-25T20:54:53.181Z,4.78
2023-02-25T20:57:26.717Z,2.42
2023-02-25T20:59:55.950Z,2.35
2023-02-25T21:02:27.398Z,2.03
2023-02-25T21:04:56.390Z,4.30
2023-02-25T21:07:25.347Z,2.60
2023-02-25T21:09:54.258Z,1.73
2023-02-25T21:12:24.800Z,3.45
2023-02-25T21:14:53.736Z,4.30
2023-02-25T21:17:22.969Z,3.40
2023-02-25T21:19:51.963Z,2.15
2023-02-25T21:22:20.830Z,3.65
2023-02-25T21:24:49.730Z,2.60
2023-02-25T21:27:18.962Z,1.98
2023-02-25T21:29:51.073Z,5.32
2023-02-25T21:32:23.323Z,0.82
2023-02-25T21:34:55.310Z,1.65
2023-02-25T21:37:28.035Z,3.00
2023-02-25T21:39:57.019Z,5.18
2023-02-25T21:42:25.892Z,2.55
2023-02-25T21:44:56.299Z,5.82
2023-02-25T21:47:25.255Z,5.68
2023-02-25T21:49:55.052Z,4.35
2023-02-25T21:52:24.278Z,3.13
2023-02-25T21:54:54.033Z,2.90
2023-02-25T21:57:22.961Z,2.88
2023-02-25T21:59:53.749Z,4.00
2023-02-25T22:02:25.006Z,2.05
2023-02-25T22:04:53.910Z,3.70
2023-02-25T22:07:29.466Z,1.67
2023-02-25T22:09:58.622Z,5.38
2023-02-25T22:12:28.229Z,6.22
2023-02-25T22:15:03.094Z,3.33
2023-02-25T22:17:33.667Z,2.05
2023-02-25T22:20:06.739Z,5.03
2023-02-25T22:22:38.341Z,4.45
2023-02-25T22:25:08.338Z,3.05
2023-02-25T22:27:37.310Z,4.03
2023-02-25T22:30:08.804Z,4.00
2023-02-25T22:32:39.446Z,3.95
2023-02-25T22:35:09.054Z,3.53
2023-02-25T22:37:38.084Z,3.75
2023-02-25T22:40:08.566Z,2.63
2023-02-25T22:42:37.479Z,3.15
2023-02-25T22:45:08.019Z,5.05
2023-02-25T22:47:38.393Z,2.97
2023-02-25T22:50:09.169Z,2.78
2023-02-25T22:52:40.495Z,3.33
2023-02-25T22:55:10.977Z,8.20
2023-02-25T22:57:39.900Z,3.53
2023-02-25T23:00:16.920Z,2.55
2023-02-25T23:02:50.192Z,3.33
2023-02-25T23:05:19.098Z,3.60
2023-02-25T23:07:49.724Z,3.22
2023-02-25T23:10:19.295Z,4.32
2023-02-25T23:12:48.281Z,2.95
2023-02-25T23:15:17.550Z,4.45
2023-02-25T23:17:47.818Z,2.67
2023-02-25T23:20:16.849Z,3.80
2023-02-25T23:22:45.844Z,2.83
2023-02-25T23:25:14.754Z,2.53
2023-02-25T23:27:43.686Z,3.97
2023-02-25T23:30:13.982Z,2.33
2023-02-25T23:32:43.050Z,1.73
2023-02-25T23:35:16.534Z,3.45
2023-02-25T23:37:52.794Z,2.78
2023-02-25T23:40:22.209Z,4.30
2023-02-25T23:42:51.264Z,2.65
2023-02-25T23:45:20.269Z,2.70
2023-02-25T23:47:49.276Z,2.53
2023-02-25T23:50:19.789Z,2.38
2023-02-25T23:52:48.761Z,2.60
2023-02-25T23:55:17.904Z,4.60
2023-02-25T23:57:46.804Z,4.78
